createdAt,value
2017-05-24T00:05:17.335Z,18.60
2017-05-24T00:07:44.453Z,18.50
2017-05-24T00:10:16.438Z,18.50
2017-05-24T00:12:47.039Z,18.40
2017-05-24T00:15:14.425Z,18.30
2017-05-24T00:17:42.047Z,18.20
2017-05-24T00:22:41.537Z,18.20
2017-05-24T00:25:11.740Z,18.20
2017-05-24T00:27:39.567Z,18.20
2017-05-24T00:30:06.705Z,18.20
2017-05-24T00:32:36.502Z,18.20
2017-05-24T00:35:03.838Z,18.10
2017-05-24T00:37:33.847Z,18.00
2017-05-24T00:42:35.104Z,18.00
2017-05-24T00:45:03.335Z,18.10
2017-05-24T00:47:29.436Z,18.00
2017-05-24T00:52:30.592Z,18.00
2017-05-24T00:54:57.538Z,18.00
2017-05-24T00:57:24.914Z,17.90
2017-05-24T00:59:53.060Z,17.90
2017-05-24T01:02:25.634Z,18.00
2017-05-24T01:04:55.036Z,18.00
2017-05-24T01:07:24.550Z,17.70
2017-05-24T01:12:24.729Z,17.90
2017-05-24T01:14:51.346Z,17.80
2017-05-24T01:17:19.444Z,17.80
2017-05-24T01:19:47.279Z,17.80
2017-05-24T01:22:15.958Z,17.80
2017-05-24T01:24:43.295Z,17.90
2017-05-24T01:27:11.127Z,17.90
2017-05-24T01:29:40.410Z,17.80
2017-05-24T01:32:07.204Z,17.70
2017-05-24T01:34:33.960Z,17.70
2017-05-24T01:37:00.687Z,17.70
2017-05-24T01:39:29.540Z,17.70
2017-05-24T01:41:57.186Z,17.70
2017-05-24T01:44:24.916Z,17.70
2017-05-24T01:46:53.685Z,17.70
2017-05-24T01:49:21.456Z,17.70
2017-05-24T01:51:49.101Z,17.70
2017-05-24T01:54:17.300Z,17.70
2017-05-24T01:56:51.863Z,17.70
2017-05-24T02:08:38.100Z,17.70
2017-05-24T02:13:58.568Z,17.70
2017-05-24T02:16:27.868Z,17.70
2017-05-24T02:18:56.808Z,17.70
2017-05-24T02:21:23.762Z,17.60
2017-05-24T02:23:50.520Z,17.60
2017-05-24T02:26:18.540Z,17.60
2017-05-24T02:28:47.851Z,17.60
2017-05-24T02:31:15.011Z,17.60
2017-05-24T02:33:43.173Z,17.50
2017-05-24T02:36:12.943Z,17.50
2017-05-24T02:38:41.038Z,17.40
2017-05-24T02:41:10.831Z,17.40
2017-05-24T02:46:44.082Z,17.30
2017-05-24T02:49:12.659Z,17.30
2017-05-24T02:51:40.078Z,17.20
2017-05-24T02:54:07.373Z,17.20
2017-05-24T02:56:36.039Z,17.20
2017-05-24T02:59:02.802Z,17.20
2017-05-24T03:01:31.591Z,17.20
2017-05-24T03:04:00.688Z,17.10
2017-05-24T03:06:28.454Z,17.10
2017-05-24T03:08:55.287Z,17.10
2017-05-24T03:13:56.738Z,17.10
2017-05-24T03:16:25.081Z,17.10
2017-05-24T03:18:51.858Z,17.00
2017-05-24T03:21:20.227Z,17.00
2017-05-24T03:23:48.625Z,17.00
2017-05-24T03:26:16.926Z,17.00
2017-05-24T03:28:46.713Z,16.90
2017-05-24T03:31:15.857Z,16.90
2017-05-24T03:33:43.416Z,16.90
2017-05-24T03:36:10.121Z,16.90
2017-05-24T03:38:38.518Z,16.90
2017-05-24T03:41:06.762Z,16.80
2017-05-24T03:43:35.348Z,16.80
2017-05-24T03:46:04.581Z,16.80
2017-05-24T03:48:32.365Z,16.80
2017-05-24T03:50:59.155Z,16.80
2017-05-24T03:53:26.704Z,16.70
2017-05-24T03:55:52.647Z,16.80
2017-05-24T03:58:19.977Z,16.80
2017-05-24T04:00:48.099Z,16.80
2017-05-24T04:03:15.112Z,16.80
2017-05-24T04:05:43.494Z,16.80
2017-05-24T04:08:11.192Z,16.70
2017-05-24T04:10:39.698Z,16.70
2017-05-24T04:13:07.388Z,16.70
2017-05-24T04:15:34.376Z,16.80
2017-05-24T04:18:01.854Z,16.80
2017-05-24T04:20:29.212Z,16.80
2017-05-24T04:22:56.583Z,16.70
2017-05-24T04:25:25.333Z,16.70
2017-05-24T04:27:52.498Z,16.70
2017-05-24T04:30:20.329Z,16.70
2017-05-24T04:32:47.693Z,16.70
2017-05-24T04:35:13.677Z,16.70
2017-05-24T04:37:40.475Z,16.80
2017-05-24T04:40:09.793Z,16.80
2017-05-24T04:42:36.630Z,16.80
2017-05-24T04:45:05.672Z,16.80
2017-05-24T04:47:35.666Z,16.80
2017-05-24T04:50:03.768Z,16.80
2017-05-24T04:52:31.288Z,16.70
2017-05-24T04:55:03.168Z,16.70
2017-05-24T04:57:31.486Z,16.70
2017-05-24T05:00:00.174Z,16.80
2017-05-24T05:02:28.432Z,16.70
2017-05-24T05:04:57.429Z,16.70
2017-05-24T05:07:24.451Z,16.80
2017-05-24T05:09:52.358Z,16.70
2017-05-24T05:12:31.655Z,16.80
2017-05-24T05:14:59.114Z,16.80
2017-05-24T05:17:26.798Z,16.80
2017-05-24T05:19:57.263Z,16.80
2017-05-24T05:22:25.281Z,16.90
2017-05-24T05:24:55.057Z,16.90
2017-05-24T05:27:23.238Z,17.00
2017-05-24T05:29:50.577Z,17.00
2017-05-24T05:32:18.962Z,17.10
2017-05-24T05:37:17.412Z,17.10
2017-05-24T05:39:44.247Z,17.10
2017-05-24T05:42:12.053Z,17.10
2017-05-24T05:44:40.436Z,17.10
2017-05-24T05:47:08.650Z,17.20
2017-05-24T05:49:35.986Z,17.10
2017-05-24T05:52:07.735Z,17.20
2017-05-24T05:54:35.340Z,17.30
2017-05-24T05:57:02.341Z,17.40
2017-05-24T05:59:32.233Z,17.40
2017-05-24T06:01:59.867Z,17.50
2017-05-24T06:04:29.313Z,17.50
2017-05-24T06:06:59.350Z,17.50
2017-05-24T06:09:28.490Z,17.50
2017-05-24T06:11:57.249Z,17.50
2017-05-24T06:14:28.576Z,17.50
2017-05-24T06:16:57.285Z,17.40
2017-05-24T06:19:24.204Z,17.30
2017-05-24T06:21:52.529Z,17.30
2017-05-24T06:24:21.051Z,17.40
2017-05-24T06:26:49.800Z,17.50
2017-05-24T06:29:17.301Z,17.50
2017-05-24T06:31:48.349Z,17.50
2017-05-24T06:34:17.040Z,17.50
2017-05-24T06:36:47.238Z,17.50
2017-05-24T06:39:31.307Z,17.60
2017-05-24T06:44:33.290Z,17.70
2017-05-24T06:47:04.582Z,17.70
2017-05-24T06:49:37.633Z,17.80
2017-05-24T06:52:06.277Z,17.90
2017-05-24T06:54:33.684Z,18.00
2017-05-24T06:57:01.517Z,18.00
2017-05-24T06:59:29.335Z,18.10
2017-05-24T07:01:59.330Z,18.10
2017-05-24T07:04:27.029Z,18.20
2017-05-24T07:06:57.631Z,18.20
2017-05-24T07:09:25.916Z,18.20
2017-05-24T07:11:54.310Z,18.30
2017-05-24T07:16:58.779Z,18.40
2017-05-24T07:19:29.345Z,18.40
2017-05-24T07:22:01.920Z,18.50
2017-05-24T07:24:32.318Z,18.40
2017-05-24T07:29:33.151Z,18.80
2017-05-24T07:32:04.637Z,18.90
2017-05-24T07:34:32.497Z,19.00
2017-05-24T07:37:01.467Z,19.30
2017-05-24T07:39:31.907Z,19.40
2017-05-24T07:42:12.244Z,19.60
2017-05-24T07:44:39.794Z,19.70
2017-05-24T07:47:09.948Z,19.70
2017-05-24T07:49:40.469Z,19.80
2017-05-24T07:52:08.825Z,19.90
2017-05-24T07:54:38.575Z,20.00
2017-05-24T07:57:09.446Z,20.00
2017-05-24T07:59:37.908Z,20.30
2017-05-24T08:02:14.242Z,20.30
2017-05-24T08:04:42.866Z,20.40
2017-05-24T08:07:11.044Z,20.30
2017-05-24T08:09:38.905Z,20.40
2017-05-24T08:12:08.366Z,20.50
2017-05-24T08:14:35.959Z,20.50
2017-05-24T08:17:08.970Z,20.70
2017-05-24T08:19:40.359Z,20.80
2017-05-24T08:22:10.918Z,20.80
2017-05-24T08:24:43.860Z,20.80
2017-05-24T08:27:14.174Z,20.70
2017-05-24T08:29:42.549Z,20.70
2017-05-24T08:34:42.129Z,20.70
2017-05-24T08:37:12.857Z,20.70
2017-05-24T08:39:47.567Z,20.90
2017-05-24T08:42:15.884Z,21.00
2017-05-24T08:44:44.740Z,21.10
2017-05-24T08:47:17.073Z,21.30
2017-05-24T08:49:45.019Z,21.40
2017-05-24T08:52:11.816Z,21.50
2017-05-24T08:54:44.797Z,21.50
2017-05-24T08:57:13.181Z,21.60
2017-05-24T08:59:41.446Z,21.80
2017-05-24T09:02:10.861Z,22.00
2017-05-24T09:04:37.651Z,22.20
2017-05-24T09:07:05.377Z,22.20
2017-05-24T09:09:32.143Z,22.30
2017-05-24T09:11:58.900Z,22.10
2017-05-24T09:14:25.939Z,21.90
2017-05-24T09:16:53.589Z,21.80
2017-05-24T09:21:52.397Z,21.80
2017-05-24T09:24:19.961Z,21.90
2017-05-24T09:26:46.713Z,21.80
2017-05-24T09:29:13.624Z,21.70
2017-05-24T09:31:40.561Z,21.60
2017-05-24T09:36:46.729Z,21.80
2017-05-24T09:39:16.906Z,21.90
2017-05-24T09:41:47.073Z,22.10
2017-05-24T09:44:15.888Z,22.20
2017-05-24T09:46:42.960Z,22.30
2017-05-24T09:49:10.565Z,22.50
2017-05-24T09:51:42.764Z,22.50
2017-05-24T09:54:27.957Z,22.40
2017-05-24T09:56:54.930Z,22.30
2017-05-24T09:59:23.208Z,22.20
2017-05-24T10:01:51.000Z,22.20
2017-05-24T10:04:22.115Z,22.40
2017-05-24T10:06:50.686Z,22.60
2017-05-24T10:09:17.538Z,22.70
2017-05-24T10:11:46.143Z,22.80
2017-05-24T10:14:13.969Z,23.10
2017-05-24T10:16:42.606Z,23.30
2017-05-24T10:19:10.855Z,23.30
2017-05-24T10:21:39.356Z,23.30
2017-05-24T10:24:06.908Z,23.30
2017-05-24T10:26:34.451Z,23.20
2017-05-24T10:29:02.201Z,23.10
2017-05-24T10:31:30.793Z,22.80
2017-05-24T10:33:58.267Z,22.50
2017-05-24T10:36:26.237Z,22.20
2017-05-24T10:38:53.107Z,22.10
2017-05-24T10:41:26.144Z,21.80
2017-05-24T10:43:53.034Z,21.60
2017-05-24T10:46:21.233Z,21.50
2017-05-24T10:48:49.244Z,21.50
2017-05-24T10:51:17.825Z,21.40
2017-05-24T10:56:18.925Z,21.10
2017-05-24T10:58:45.750Z,21.30
2017-05-24T11:01:14.225Z,21.30
2017-05-24T11:03:42.280Z,21.30
2017-05-24T11:06:09.041Z,21.50
2017-05-24T11:08:37.090Z,21.70
2017-05-24T11:11:03.563Z,21.60
2017-05-24T11:13:34.749Z,22.00
2017-05-24T11:18:34.121Z,22.40
2017-05-24T11:21:01.728Z,22.50
2017-05-24T11:23:30.185Z,22.70
2017-05-24T11:25:58.036Z,22.90
2017-05-24T11:31:02.621Z,23.00
2017-05-24T11:33:47.843Z,22.80
2017-05-24T11:36:16.280Z,22.70
2017-05-24T11:38:46.983Z,22.60
2017-05-24T11:41:15.026Z,22.50
2017-05-24T11:51:38.661Z,22.00
2017-05-24T11:54:06.026Z,22.00
2017-05-24T11:56:32.521Z,22.20
2017-05-24T11:58:59.609Z,22.20
2017-05-24T12:03:58.270Z,22.40
2017-05-24T12:06:25.114Z,22.60
2017-05-24T12:08:55.745Z,22.60
2017-05-24T12:11:22.797Z,22.60
2017-05-24T12:13:53.076Z,22.60
2017-05-24T12:16:20.676Z,22.50
2017-05-24T12:18:49.107Z,22.40
2017-05-24T12:21:16.751Z,22.40
2017-05-24T12:23:44.320Z,22.40
2017-05-24T12:28:45.325Z,22.40
2017-05-24T12:31:14.060Z,22.50
2017-05-24T12:33:42.479Z,22.50
2017-05-24T12:36:09.764Z,22.60
2017-05-24T12:38:37.184Z,22.50
2017-05-24T12:44:02.682Z,22.20
2017-05-24T12:46:39.437Z,22.00
2017-05-24T12:49:06.542Z,21.90
2017-05-24T12:54:06.031Z,22.00
2017-05-24T13:07:25.511Z,21.30
2017-05-24T13:09:54.780Z,21.40
2017-05-24T13:14:57.819Z,21.30
2017-05-24T13:17:24.965Z,21.10
2017-05-24T13:25:00.385Z,20.90
2017-05-24T13:27:29.849Z,21.20
2017-05-24T13:32:57.960Z,21.20
2017-05-24T13:41:04.579Z,21.40
2017-05-24T14:05:55.672Z,21.90
2017-05-24T14:08:22.037Z,21.80
2017-05-24T14:32:15.681Z,22.40
2017-05-24T14:45:14.567Z,22.80
2017-05-24T14:47:45.522Z,22.90
2017-05-24T14:55:49.936Z,22.70
2017-05-24T14:58:21.368Z,22.50
2017-05-24T15:03:30.833Z,22.30
2017-05-24T15:06:00.845Z,22.30
2017-05-24T15:11:08.402Z,22.20
2017-05-24T15:16:19.554Z,22.20
2017-05-24T15:18:50.284Z,22.40
2017-05-24T15:24:14.642Z,22.70
2017-05-24T15:43:11.161Z,22.30
2017-05-24T15:48:13.982Z,22.10
2017-05-24T15:53:33.756Z,22.00
2017-05-24T15:56:09.438Z,21.90
2017-05-24T15:58:36.834Z,21.70
2017-05-24T16:25:45.615Z,21.10
2017-05-24T16:36:11.274Z,20.80
2017-05-24T16:41:21.904Z,20.30
2017-05-24T16:46:48.254Z,20.00
2017-05-24T16:49:21.669Z,19.60
2017-05-24T16:51:55.075Z,20.00
2017-05-24T16:57:08.106Z,20.00
2017-05-24T16:59:40.877Z,20.50
2017-05-24T17:04:47.049Z,21.60
2017-05-24T17:07:20.974Z,21.60
2017-05-24T17:09:49.186Z,22.00
2017-05-24T17:36:38.153Z,22.70
2017-05-24T18:10:20.705Z,20.50
2017-05-24T18:12:50.234Z,20.40
2017-05-24T18:21:10.136Z,20.30
2017-05-24T18:26:26.692Z,20.30
2017-05-24T18:34:26.739Z,20.00
2017-05-24T18:45:17.917Z,19.90
2017-05-24T19:30:06.245Z,19.20
2017-05-24T19:46:29.950Z,19.10
2017-05-24T20:00:34.786Z,18.80
2017-05-24T20:20:00.492Z,18.90
2017-05-24T20:22:29.597Z,18.90
2017-05-24T20:30:29.473Z,18.90
2017-05-24T20:33:22.701Z,18.90
2017-05-24T20:35:51.736Z,18.90
2017-05-24T20:43:32.832Z,18.70
2017-05-24T20:46:02.725Z,18.70
2017-05-24T20:48:32.822Z,18.70
2017-05-24T20:51:11.140Z,18.60
2017-05-24T20:53:46.175Z,18.60
2017-05-24T20:56:17.122Z,18.50
2017-05-24T21:14:46.948Z,18.50
2017-05-24T21:38:28.781Z,18.60
2017-05-24T21:40:57.762Z,18.60
2017-05-24T21:48:47.548Z,18.40
2017-05-24T21:51:27.991Z,18.40
2017-05-24T21:56:49.859Z,18.30
2017-05-24T21:59:20.474Z,18.30
2017-05-24T22:01:47.706Z,18.20
2017-05-24T22:04:14.282Z,17.90
2017-05-24T22:06:41.661Z,18.20
2017-05-24T22:09:13.054Z,18.10
2017-05-24T22:14:18.563Z,18.10
2017-05-24T22:19:28.339Z,17.90
2017-05-24T22:21:58.348Z,17.80
2017-05-24T22:27:02.475Z,17.60
2017-05-24T22:29:30.245Z,17.60
2017-05-24T22:34:31.189Z,17.50
2017-05-24T22:37:03.836Z,17.50
2017-05-24T22:39:31.656Z,17.40
2017-05-24T22:42:05.736Z,17.70
2017-05-24T22:44:32.376Z,17.50
2017-05-24T22:47:03.579Z,17.50
2017-05-24T22:49:33.120Z,17.50
2017-05-24T22:54:34.714Z,17.40
2017-05-24T22:57:06.009Z,17.40
2017-05-24T22:59:35.729Z,17.30
2017-05-24T23:02:04.502Z,17.20
2017-05-24T23:04:34.421Z,17.10
2017-05-24T23:07:01.641Z,17.10
2017-05-24T23:09:28.929Z,17.10
2017-05-24T23:11:59.739Z,17.20
2017-05-24T23:17:19.934Z,17.20
2017-05-24T23:19:51.789Z,17.20
2017-05-24T23:27:24.197Z,17.20
2017-05-24T23:29:51.465Z,17.40
2017-05-24T23:32:19.148Z,17.30
2017-05-24T23:45:42.380Z,17.20
2017-05-24T23:50:57.449Z,17.10
2017-05-24T23:53:24.002Z,17.40
2017-05-24T23:56:00.324Z,17.10
2017-05-24T23:58:39.002Z,17.10
